Weather at Lotnisko Orneta

Public forecast

Using degrees Celsius for public forecast. Weather courtesy of forecast.io.

Closest aviation weather report (METAR) to Lotnisko Orneta

Closest report is Olsztyn-Mazury Airport, 49.1 nm (90.8 km) SE. Retrieved 2021/06/13 11:30 UTC (1 minute ago):

EPSY 131130Z 32015G26KT 270V350 9999 SCT034 19/11 Q1014

Closest aviation forecast (TAF) to Lotnisko Orneta

Closest forecast is Khrabrovo Airport, 49.1 nm (90.9 km) NNE. Retrieved 2021/06/13 09:26 UTC (2 hours ago):

TAF UMKK 130753Z 1309/1409 33010G16MPS 9999 SCT016CB BECMG 1316/1318 34005G10MPS BECMG 1322/1324 VRB01MPS FEW020